createdAt,value
2022-10-24T00:01:19.291Z,19.42
2022-10-24T00:03:46.434Z,19.42
2022-10-24T00:06:14.110Z,19.42
2022-10-24T00:08:43.291Z,19.46
2022-10-24T00:11:15.847Z,19.47
2022-10-24T00:13:43.213Z,19.49
2022-10-24T00:16:11.059Z,19.48
2022-10-24T00:18:38.774Z,19.52
2022-10-24T00:21:06.201Z,19.52
2022-10-24T00:23:33.240Z,19.47
2022-10-24T00:26:04.246Z,19.47
2022-10-24T00:28:36.368Z,19.42
2022-10-24T00:31:05.716Z,19.46
2022-10-24T00:33:33.456Z,19.45
2022-10-24T00:36:00.374Z,19.44
2022-10-24T00:38:27.299Z,19.40
2022-10-24T00:40:54.204Z,19.36
2022-10-24T00:43:25.214Z,19.34
2022-10-24T00:45:57.730Z,19.32
2022-10-24T00:48:36.681Z,19.28
2022-10-24T00:51:18.527Z,19.24
2022-10-24T00:53:50.974Z,19.21
2022-10-24T00:56:22.024Z,19.21
2022-10-24T00:58:50.148Z,19.20
2022-10-24T01:01:17.174Z,19.18
2022-10-24T01:03:44.135Z,19.16
2022-10-24T01:06:44.669Z,19.09
2022-10-24T01:09:39.856Z,19.03
2022-10-24T01:12:30.975Z,19.00
2022-10-24T01:15:13.762Z,18.97
2022-10-24T01:17:56.736Z,18.97
2022-10-24T01:21:07.476Z,18.97
2022-10-24T01:24:29.693Z,18.96
2022-10-24T01:27:08.497Z,18.97
2022-10-24T01:29:51.232Z,18.97
2022-10-24T01:32:35.680Z,18.99
2022-10-24T01:35:36.503Z,19.00
2022-10-24T01:38:30.190Z,18.97
2022-10-24T01:41:24.683Z,18.95
2022-10-24T01:44:07.520Z,18.93
2022-10-24T01:46:43.750Z,18.92
2022-10-24T01:49:18.563Z,18.91
2022-10-24T01:51:50.788Z,18.90
2022-10-24T01:54:17.907Z,18.85
2022-10-24T01:56:44.979Z,18.89
2022-10-24T01:59:29.818Z,18.86
2022-10-24T02:02:08.852Z,18.84
2022-10-24T02:04:44.436Z,18.84
2022-10-24T02:07:14.062Z,18.84
2022-10-24T02:09:43.863Z,18.83
2022-10-24T02:12:14.539Z,18.81
2022-10-24T02:14:48.020Z,18.80
2022-10-24T02:17:15.329Z,18.80
2022-10-24T02:19:43.348Z,18.80
2022-10-24T02:22:42.518Z,18.77
2022-10-24T02:25:13.442Z,18.79
2022-10-24T02:27:57.212Z,18.79
2022-10-24T02:30:26.732Z,18.80
2022-10-24T02:32:59.545Z,18.80
2022-10-24T02:35:30.224Z,18.80
2022-10-24T02:38:24.834Z,18.80
2022-10-24T02:40:54.017Z,18.81
2022-10-24T02:43:22.576Z,18.82
2022-10-24T02:45:53.408Z,18.80
2022-10-24T02:48:28.081Z,18.78
2022-10-24T02:50:55.027Z,18.77
2022-10-24T02:53:25.657Z,18.77
2022-10-24T02:55:52.695Z,18.75
2022-10-24T02:58:19.634Z,18.74
2022-10-24T03:00:46.654Z,18.74
2022-10-24T03:03:13.621Z,18.75
2022-10-24T03:05:40.527Z,18.70
2022-10-24T03:08:07.438Z,18.74
2022-10-24T03:10:34.304Z,18.76
2022-10-24T03:13:01.240Z,18.75
2022-10-24T03:15:28.100Z,18.76
2022-10-24T03:17:55.029Z,18.76
2022-10-24T03:20:21.921Z,18.76
2022-10-24T03:22:48.800Z,18.77
2022-10-24T03:25:15.810Z,18.78
2022-10-24T03:27:42.971Z,18.81
2022-10-24T03:30:10.727Z,18.82
2022-10-24T03:32:37.621Z,18.82
2022-10-24T03:35:04.901Z,18.83
2022-10-24T03:37:31.791Z,18.83
2022-10-24T03:39:59.084Z,18.82
2022-10-24T03:42:26.024Z,18.80
2022-10-24T03:44:52.909Z,18.82
2022-10-24T03:47:20.035Z,18.80
2022-10-24T03:49:46.963Z,18.80
2022-10-24T03:52:13.859Z,18.80
2022-10-24T03:54:40.771Z,18.81
2022-10-24T03:57:09.874Z,18.81
2022-10-24T03:59:37.262Z,18.82
2022-10-24T04:02:04.715Z,18.83
2022-10-24T04:04:32.256Z,18.87
2022-10-24T04:07:00.386Z,18.88
2022-10-24T04:09:28.055Z,18.89
2022-10-24T04:11:54.933Z,18.88
2022-10-24T04:14:22.138Z,18.86
2022-10-24T04:16:49.427Z,18.90
2022-10-24T04:19:19.650Z,18.91
2022-10-24T04:21:48.002Z,18.92
2022-10-24T04:24:15.997Z,18.91
2022-10-24T04:26:43.080Z,18.96
2022-10-24T04:29:10.059Z,18.98
2022-10-24T04:31:36.975Z,19.00
2022-10-24T04:34:05.540Z,19.02
2022-10-24T04:36:33.943Z,19.03
2022-10-24T04:41:32.965Z,19.03
2022-10-24T04:43:59.837Z,19.04
2022-10-24T04:46:26.727Z,19.05
2022-10-24T04:48:53.623Z,19.05
2022-10-24T04:51:22.420Z,19.05
2022-10-24T04:53:50.782Z,19.05
2022-10-24T04:56:18.824Z,19.02
2022-10-24T04:58:45.880Z,19.01
2022-10-24T05:01:12.803Z,18.99
2022-10-24T05:03:39.681Z,18.97
2022-10-24T05:06:06.604Z,18.95
2022-10-24T05:08:33.464Z,18.94
2022-10-24T05:11:00.473Z,18.92
2022-10-24T05:13:27.351Z,18.92
2022-10-24T05:15:54.252Z,18.90
2022-10-24T05:18:21.252Z,18.89
2022-10-24T05:20:48.135Z,18.89
2022-10-24T05:23:15.088Z,18.90
2022-10-24T05:25:41.981Z,18.90
2022-10-24T05:28:08.835Z,18.91
2022-10-24T05:30:35.804Z,18.92
2022-10-24T05:33:02.678Z,18.93
2022-10-24T05:35:29.550Z,18.94
2022-10-24T05:37:56.463Z,18.94
2022-10-24T05:40:23.388Z,18.92
2022-10-24T05:42:52.169Z,18.92
2022-10-24T05:45:19.286Z,18.89
2022-10-24T05:47:46.608Z,18.88
2022-10-24T05:50:14.249Z,18.86
2022-10-24T05:52:46.138Z,18.82
2022-10-24T05:55:17.009Z,18.77
2022-10-24T05:57:45.824Z,18.74
2022-10-24T06:00:15.732Z,18.72
2022-10-24T06:02:43.385Z,18.69
2022-10-24T06:05:11.608Z,18.66
2022-10-24T06:07:39.312Z,18.66
2022-10-24T06:10:07.045Z,18.64
2022-10-24T06:12:36.317Z,18.63
2022-10-24T06:15:05.455Z,18.59
2022-10-24T06:17:32.462Z,18.61
2022-10-24T06:19:59.321Z,18.60
2022-10-24T06:22:29.565Z,18.59
2022-10-24T06:24:56.722Z,18.57
2022-10-24T06:27:24.184Z,18.55
2022-10-24T06:29:51.070Z,18.55
2022-10-24T06:32:18.403Z,18.56
2022-10-24T06:34:45.288Z,18.52
2022-10-24T06:37:12.194Z,18.55
2022-10-24T06:39:39.144Z,18.56
2022-10-24T06:42:06.054Z,18.55
2022-10-24T06:44:33.005Z,18.50
2022-10-24T06:46:59.909Z,18.56
2022-10-24T06:49:26.894Z,18.58
2022-10-24T06:51:53.868Z,18.59
2022-10-24T06:54:21.218Z,18.60
2022-10-24T06:56:49.280Z,18.62
2022-10-24T06:59:17.835Z,18.64
2022-10-24T07:01:45.749Z,18.68
2022-10-24T07:04:12.901Z,18.71
2022-10-24T07:06:40.468Z,18.75
2022-10-24T07:09:10.289Z,18.78
2022-10-24T07:11:39.853Z,18.83
2022-10-24T07:14:09.132Z,18.88
2022-10-24T07:16:36.583Z,18.92
2022-10-24T07:19:05.151Z,18.96
2022-10-24T07:21:33.433Z,18.98
2022-10-24T07:24:01.338Z,19.03
2022-10-24T07:26:30.642Z,19.00
2022-10-24T07:29:04.172Z,19.06
2022-10-24T07:31:34.993Z,19.13
2022-10-24T07:34:05.261Z,19.16
2022-10-24T07:36:32.790Z,19.21
2022-10-24T07:39:00.695Z,19.24
2022-10-24T07:41:30.326Z,19.29
2022-10-24T07:43:58.931Z,19.34
2022-10-24T07:46:26.355Z,19.37
2022-10-24T07:48:54.505Z,19.40
2022-10-24T07:51:22.245Z,19.44
2022-10-24T07:53:49.904Z,19.46
2022-10-24T07:56:17.664Z,19.49
2022-10-24T07:58:45.720Z,19.53
2022-10-24T08:01:17.973Z,19.55
2022-10-24T08:03:45.118Z,19.59
2022-10-24T08:06:16.126Z,19.63
2022-10-24T08:08:43.360Z,19.67
2022-10-24T08:11:23.871Z,19.69
2022-10-24T08:13:52.106Z,19.74
2022-10-24T08:16:22.031Z,19.79
2022-10-24T08:18:50.410Z,19.89
2022-10-24T08:21:19.728Z,19.90
2022-10-24T08:23:50.403Z,19.95
2022-10-24T08:26:21.490Z,19.97
2022-10-24T08:28:49.181Z,20.02
2022-10-24T08:31:22.076Z,20.05
2022-10-24T08:33:52.608Z,20.10
2022-10-24T08:36:26.453Z,20.13
2022-10-24T08:38:53.517Z,20.15
2022-10-24T08:41:37.509Z,20.21
2022-10-24T08:44:27.140Z,20.23
2022-10-24T08:47:44.871Z,20.22
2022-10-24T08:50:26.100Z,20.23
2022-10-24T08:53:05.348Z,20.24
2022-10-24T08:55:53.823Z,20.27
2022-10-24T08:58:26.817Z,20.31
2022-10-24T09:00:57.738Z,20.37
2022-10-24T09:03:55.714Z,20.42
2022-10-24T09:06:28.161Z,20.46
2022-10-24T09:09:15.578Z,20.48
2022-10-24T09:11:52.823Z,20.52
2022-10-24T09:14:35.885Z,20.54
2022-10-24T09:17:34.059Z,20.53
2022-10-24T09:20:29.899Z,20.60
2022-10-24T09:23:01.017Z,20.64
2022-10-24T09:25:33.532Z,20.68
2022-10-24T09:28:04.734Z,20.71
2022-10-24T09:30:33.472Z,20.80
2022-10-24T09:33:22.440Z,20.84
2022-10-24T09:35:52.290Z,20.89
2022-10-24T09:38:37.854Z,20.93
2022-10-24T09:41:22.741Z,20.97
2022-10-24T09:43:58.029Z,20.99
2022-10-24T09:46:38.391Z,21.08
2022-10-24T09:49:20.224Z,21.17
2022-10-24T09:52:00.886Z,21.25
2022-10-24T09:54:34.996Z,21.27
2022-10-24T09:57:11.002Z,21.38
2022-10-24T09:59:46.213Z,21.44
2022-10-24T10:02:34.863Z,21.53
2022-10-24T10:05:04.514Z,21.60
2022-10-24T10:07:39.007Z,21.64
2022-10-24T10:10:29.338Z,21.65
2022-10-24T10:13:18.544Z,21.73
2022-10-24T10:15:49.259Z,21.73
2022-10-24T10:19:21.699Z,21.77
2022-10-24T10:22:00.227Z,21.82
2022-10-24T10:24:35.713Z,21.84
2022-10-24T10:27:30.329Z,21.87
2022-10-24T10:30:19.264Z,21.89
2022-10-24T10:33:11.301Z,21.94
2022-10-24T10:36:04.910Z,21.94
2022-10-24T10:38:52.650Z,22.04
2022-10-24T10:41:34.645Z,22.09
2022-10-24T10:44:27.884Z,22.12
2022-10-24T10:47:47.100Z,22.11
2022-10-24T10:50:27.946Z,22.16
2022-10-24T10:53:42.851Z,22.17
2022-10-24T10:56:40.108Z,22.20
2022-10-24T10:59:20.668Z,22.24
2022-10-24T11:02:12.425Z,22.27
2022-10-24T11:05:35.628Z,22.30
2022-10-24T11:08:27.436Z,22.33
2022-10-24T11:11:00.828Z,22.37
2022-10-24T11:13:35.685Z,22.40
2022-10-24T11:16:12.072Z,22.44
2022-10-24T11:18:43.949Z,22.48
2022-10-24T11:21:14.073Z,22.50
2022-10-24T11:24:13.944Z,22.52
2022-10-24T11:26:46.384Z,22.56
2022-10-24T11:29:30.026Z,22.57
2022-10-24T11:32:10.989Z,22.61
2022-10-24T11:34:51.782Z,22.64
2022-10-24T11:37:24.822Z,22.63
2022-10-24T11:40:12.408Z,22.72
2022-10-24T11:43:09.703Z,22.74
2022-10-24T11:46:09.554Z,22.76
2022-10-24T11:48:43.412Z,22.78
2022-10-24T11:51:20.584Z,22.81
2022-10-24T11:54:21.445Z,22.84
2022-10-24T11:56:56.754Z,22.85
2022-10-24T11:59:24.478Z,22.88
2022-10-24T12:02:41.939Z,22.93
2022-10-24T12:05:27.567Z,22.96
2022-10-24T12:08:42.438Z,22.99
2022-10-24T12:11:25.725Z,23.03
2022-10-24T12:14:30.504Z,22.99
2022-10-24T12:17:41.296Z,23.04
2022-10-24T12:20:15.817Z,23.13
2022-10-24T12:22:44.542Z,23.16
2022-10-24T12:25:37.349Z,23.17
2022-10-24T12:28:25.574Z,23.18
2022-10-24T12:31:22.365Z,23.19
2022-10-24T12:34:25.001Z,23.19
2022-10-24T12:37:17.068Z,23.22
2022-10-24T12:39:57.592Z,23.22
2022-10-24T12:42:25.288Z,23.28
2022-10-24T12:45:32.181Z,23.30
2022-10-24T12:47:58.921Z,23.35
2022-10-24T12:50:27.495Z,23.38
2022-10-24T12:52:57.261Z,23.42
2022-10-24T12:55:51.515Z,23.44
2022-10-24T12:58:34.815Z,23.47
2022-10-24T13:01:11.538Z,23.48
2022-10-24T13:03:50.710Z,23.50
2022-10-24T13:06:35.538Z,23.51
2022-10-24T13:09:54.387Z,23.50
2022-10-24T13:13:19.791Z,23.49
2022-10-24T13:15:58.878Z,23.50
2022-10-24T13:18:43.445Z,23.52
2022-10-24T13:21:14.939Z,23.54
2022-10-24T13:23:45.409Z,23.53
2022-10-24T13:26:42.899Z,23.49
2022-10-24T13:29:38.476Z,23.46
2022-10-24T13:32:05.186Z,23.47
2022-10-24T13:34:52.423Z,23.45
2022-10-24T13:37:41.409Z,23.42
2022-10-24T13:40:12.987Z,23.44
2022-10-24T13:42:57.476Z,23.45
2022-10-24T13:45:42.176Z,23.46
2022-10-24T13:48:26.359Z,23.46
2022-10-24T13:51:23.808Z,23.46
2022-10-24T13:53:56.482Z,23.48
2022-10-24T13:56:23.351Z,23.47
2022-10-24T13:58:50.289Z,23.47
2022-10-24T14:01:27.584Z,23.46
2022-10-24T14:03:56.630Z,23.46
2022-10-24T14:06:30.734Z,23.44
2022-10-24T14:09:07.305Z,23.43
2022-10-24T14:11:40.117Z,23.41
2022-10-24T14:14:35.020Z,23.39
2022-10-24T14:17:16.357Z,23.36
2022-10-24T14:20:10.594Z,23.32
2022-10-24T14:22:40.536Z,23.30
2022-10-24T14:25:36.888Z,23.24
2022-10-24T14:28:15.492Z,23.24
2022-10-24T14:30:54.704Z,23.21
2022-10-24T14:33:28.848Z,23.19
2022-10-24T14:35:58.805Z,23.17
2022-10-24T14:38:27.813Z,23.14
2022-10-24T14:41:07.783Z,23.10
2022-10-24T14:43:41.099Z,22.99
2022-10-24T14:46:13.858Z,23.01
2022-10-24T14:48:47.148Z,22.96
2022-10-24T14:51:27.271Z,22.88
2022-10-24T14:53:55.999Z,22.90
2022-10-24T14:56:27.889Z,22.89
2022-10-24T14:58:57.720Z,22.86
2022-10-24T15:01:25.494Z,22.85
2022-10-24T15:04:04.889Z,22.83
2022-10-24T15:06:44.165Z,22.81
2022-10-24T15:09:10.906Z,22.80
2022-10-24T15:11:45.456Z,22.80
2022-10-24T15:14:49.134Z,22.77
2022-10-24T15:17:29.866Z,22.76
2022-10-24T15:20:02.376Z,22.74
2022-10-24T15:22:36.326Z,22.72
2022-10-24T15:25:08.392Z,22.70
2022-10-24T15:27:44.029Z,22.65
2022-10-24T15:30:21.926Z,22.63
2022-10-24T15:32:50.702Z,22.54
2022-10-24T15:35:18.624Z,22.54
2022-10-24T15:38:03.973Z,22.50
2022-10-24T15:40:34.456Z,22.45
2022-10-24T15:43:01.785Z,22.42
2022-10-24T15:45:28.736Z,22.37
2022-10-24T15:47:55.669Z,22.29
2022-10-24T15:50:24.444Z,22.29
2022-10-24T15:52:55.979Z,22.26
2022-10-24T15:55:26.581Z,22.21
2022-10-24T15:57:54.159Z,22.18
2022-10-24T16:00:22.873Z,22.11
2022-10-24T16:02:53.004Z,22.11
2022-10-24T16:05:37.824Z,22.06
2022-10-24T16:08:05.119Z,22.01
2022-10-24T16:10:32.241Z,21.97
2022-10-24T16:12:59.138Z,21.95
2022-10-24T16:15:34.802Z,21.90
2022-10-24T16:18:02.121Z,21.86
2022-10-24T16:20:29.004Z,21.77
2022-10-24T16:22:55.909Z,21.76
2022-10-24T16:25:26.886Z,21.74
2022-10-24T16:27:53.844Z,21.72
2022-10-24T16:30:24.584Z,21.71
2022-10-24T16:32:52.231Z,21.69
2022-10-24T16:35:29.117Z,21.67
2022-10-24T16:37:58.059Z,21.65
2022-10-24T16:40:27.304Z,21.64
2022-10-24T16:42:56.659Z,21.58
2022-10-24T16:45:24.023Z,21.60
2022-10-24T16:47:51.592Z,21.58
2022-10-24T16:50:26.112Z,21.55
2022-10-24T16:53:01.313Z,21.55
2022-10-24T16:55:29.514Z,21.52
2022-10-24T16:57:57.316Z,21.49
2022-10-24T17:00:24.987Z,21.43
2022-10-24T17:02:54.302Z,21.41
2022-10-24T17:05:25.023Z,21.29
2022-10-24T17:07:52.102Z,21.31
2022-10-24T17:10:22.089Z,21.29
2022-10-24T17:12:51.780Z,21.26
2022-10-24T17:15:22.164Z,21.23
2022-10-24T17:17:50.179Z,21.21
2022-10-24T17:20:17.544Z,21.18
2022-10-24T17:22:46.320Z,21.16
2022-10-24T17:25:23.496Z,21.11
2022-10-24T17:27:51.365Z,21.08
2022-10-24T17:30:28.354Z,21.01
2022-10-24T17:32:55.332Z,20.99
2022-10-24T17:35:24.819Z,20.95
2022-10-24T17:38:37.939Z,20.89
2022-10-24T17:41:30.753Z,20.85
2022-10-24T17:43:57.935Z,20.83
2022-10-24T17:46:25.484Z,20.80
2022-10-24T17:48:53.585Z,20.80
2022-10-24T17:51:25.694Z,20.77
2022-10-24T17:53:53.303Z,20.75
2022-10-24T17:56:23.185Z,20.73
2022-10-24T17:58:52.528Z,20.70
2022-10-24T18:01:20.604Z,20.69
2022-10-24T18:03:47.580Z,20.68
2022-10-24T18:06:15.691Z,20.64
2022-10-24T18:08:42.934Z,20.61
2022-10-24T18:11:10.821Z,20.65
2022-10-24T18:13:38.569Z,20.64
2022-10-24T18:16:14.728Z,20.61
2022-10-24T18:18:42.869Z,20.61
2022-10-24T18:23:46.733Z,20.58
2022-10-24T18:26:19.958Z,20.55
2022-10-24T18:28:49.601Z,20.53
2022-10-24T18:31:24.435Z,20.50
2022-10-24T18:33:51.647Z,20.48
2022-10-24T18:36:22.922Z,20.46
2022-10-24T18:38:50.441Z,20.44
2022-10-24T18:41:35.119Z,20.39
2022-10-24T18:44:23.158Z,20.36
2022-10-24T18:46:51.925Z,20.33
2022-10-24T18:49:19.384Z,20.29
2022-10-24T18:52:18.591Z,20.24
2022-10-24T18:55:02.495Z,20.19
2022-10-24T18:57:32.881Z,20.14
2022-10-24T19:00:00.364Z,20.12
2022-10-24T19:02:48.537Z,20.02
2022-10-24T19:05:23.327Z,20.05
2022-10-24T19:07:51.604Z,20.02
2022-10-24T19:10:25.762Z,19.97
2022-10-24T19:12:54.396Z,19.95
2022-10-24T19:15:21.879Z,19.90
2022-10-24T19:17:50.217Z,19.87
2022-10-24T19:20:21.000Z,19.84
2022-10-24T19:22:48.283Z,19.80
2022-10-24T19:25:16.141Z,19.77
2022-10-24T19:27:43.653Z,19.73
2022-10-24T19:30:12.158Z,19.70
2022-10-24T19:32:39.040Z,19.66
2022-10-24T19:35:06.323Z,19.64
2022-10-24T19:37:33.237Z,19.62
2022-10-24T19:40:00.123Z,19.59
2022-10-24T19:42:27.047Z,19.56
2022-10-24T19:44:56.427Z,19.55
2022-10-24T19:47:23.444Z,19.51
2022-10-24T19:49:50.335Z,19.49
2022-10-24T19:52:17.220Z,19.46
2022-10-24T19:54:44.580Z,19.43
2022-10-24T19:57:12.212Z,19.41
2022-10-24T19:59:39.187Z,19.39
2022-10-24T20:02:06.480Z,19.36
2022-10-24T20:04:33.415Z,19.34
2022-10-24T20:07:00.284Z,19.32
2022-10-24T20:09:27.166Z,19.30
2022-10-24T20:11:54.050Z,19.28
2022-10-24T20:14:24.405Z,19.24
2022-10-24T20:16:51.632Z,19.23
2022-10-24T20:19:18.728Z,19.20
2022-10-24T20:21:45.612Z,19.17
2022-10-24T20:24:12.550Z,19.16
2022-10-24T20:26:39.425Z,19.14
2022-10-24T20:29:06.368Z,19.12
2022-10-24T20:31:40.772Z,19.10
2022-10-24T20:34:12.006Z,19.07
2022-10-24T20:36:42.788Z,19.05
2022-10-24T20:39:09.700Z,19.03
2022-10-24T20:41:37.489Z,18.99
2022-10-24T20:44:06.741Z,19.00
2022-10-24T20:46:33.688Z,18.95
2022-10-24T20:49:00.627Z,18.94
2022-10-24T20:51:27.909Z,18.92
2022-10-24T20:53:54.817Z,18.90
2022-10-24T20:56:23.840Z,18.88
2022-10-24T20:58:52.859Z,18.87
2022-10-24T21:01:26.165Z,18.85
2022-10-24T21:03:54.770Z,18.84
2022-10-24T21:06:30.660Z,18.83
2022-10-24T21:09:01.089Z,18.82
2022-10-24T21:11:30.717Z,18.81
2022-10-24T21:14:06.699Z,18.80
2022-10-24T21:16:34.693Z,18.81
2022-10-24T21:19:02.141Z,18.78
2022-10-24T21:21:29.452Z,18.82
2022-10-24T21:24:02.587Z,18.82
2022-10-24T21:26:33.561Z,18.83
2022-10-24T21:29:09.381Z,18.85
2022-10-24T21:31:48.954Z,18.85
2022-10-24T21:34:15.874Z,18.84
2022-10-24T21:36:42.761Z,18.86
2022-10-24T21:39:14.792Z,18.86
2022-10-24T21:41:42.365Z,18.84
2022-10-24T21:44:09.244Z,18.83
2022-10-24T21:46:36.107Z,18.86
2022-10-24T21:49:03.007Z,18.87
2022-10-24T21:51:35.749Z,18.87
2022-10-24T21:54:15.189Z,18.87
2022-10-24T21:56:42.220Z,18.86
2022-10-24T21:59:14.356Z,18.83
2022-10-24T22:01:42.865Z,18.82
2022-10-24T22:04:11.505Z,18.80
2022-10-24T22:06:39.031Z,18.77
2022-10-24T22:09:08.923Z,18.72
2022-10-24T22:11:36.884Z,18.70
2022-10-24T22:14:05.703Z,18.67
2022-10-24T22:16:33.861Z,18.65
2022-10-24T22:19:03.698Z,18.63
2022-10-24T22:21:40.047Z,18.59
2022-10-24T22:24:23.058Z,18.54
2022-10-24T22:26:51.339Z,18.56
2022-10-24T22:29:22.434Z,18.54
2022-10-24T22:31:50.515Z,18.52
2022-10-24T22:34:21.606Z,18.50
2022-10-24T22:37:12.808Z,18.45
2022-10-24T22:39:40.559Z,18.47
2022-10-24T22:42:12.396Z,18.44
2022-10-24T22:44:41.911Z,18.44
2022-10-24T22:48:05.278Z,18.40
2022-10-24T22:50:55.347Z,18.36
2022-10-24T22:53:26.456Z,18.28
2022-10-24T22:56:15.468Z,18.32
2022-10-24T22:58:44.577Z,18.31
2022-10-24T23:01:42.885Z,18.27
2022-10-24T23:04:54.008Z,18.26
2022-10-24T23:07:32.147Z,18.25
2022-10-24T23:09:59.029Z,18.24
2022-10-24T23:12:26.157Z,18.24
2022-10-24T23:14:53.505Z,18.24
2022-10-24T23:17:26.872Z,18.22
2022-10-24T23:19:54.604Z,18.22
2022-10-24T23:22:28.178Z,18.21
2022-10-24T23:24:58.427Z,18.21
2022-10-24T23:27:44.675Z,18.20
2022-10-24T23:30:22.396Z,18.18
2022-10-24T23:32:51.007Z,18.18
2022-10-24T23:35:19.851Z,18.18
2022-10-24T23:37:49.671Z,18.18
2022-10-24T23:40:34.798Z,18.17
2022-10-24T23:43:04.152Z,18.18
2022-10-24T23:46:12.569Z,18.18
2022-10-24T23:48:57.898Z,18.17
2022-10-24T23:51:35.120Z,18.17
2022-10-24T23:54:02.422Z,18.15
2022-10-24T23:56:30.153Z,18.16
2022-10-24T23:58:57.048Z,18.15
